Flight Track Log - Related Links

Times and Time Zones

All times are in EDT time to prevent confusion due to time zone crossing. See the UAL525 flight status page for this flight to view local times or setup timezone preferences in your user account.

Time Position Orientation Groundspeed Altitude Reporting Facility
EDT Latitude Longitude Course Direction KTS MPH feet Rate Location/Type
Wed 07:05:55 PM 29.9572 -95.3417 276° West 190 219 600  Level Houston Center
Wed 07:06:26 PM 29.9322 -95.3422 181° South 202 232 1,800 2,531 Climbing Houston Center
Wed 07:06:59 PM 29.9153 -95.3686 233° Southwest 253 291 3,300 2,754 Climbing Houston Center
Wed 07:07:27 PM 29.8983 -95.4092 244° Southwest 256 295 4,600 2,516 Climbing Houston Center
Wed 07:08:01 PM 29.9069 -95.4444 286° West 258 297 5,900 2,688 Climbing Houston Center
Wed 07:09:03 PM 29.9289 -95.5311 286° West 283 326 8,900 2,613 Climbing Houston Center
Wed 07:10:05 PM 29.9506 -95.6192 286° West 285 328 11,300 2,323 Climbing Houston Center
Wed 07:11:00 PM 30.0670 -96.0534 276° West  Level FlightAware Approximate
Wed 07:11:07 PM 29.9819 -95.7469 286° West 342 394 13,700  Level Houston Center
Wed 07:12:09 PM 30.0083 -95.8586 285° West 361 415 16,300 2,710 Climbing Houston Center
Wed 07:13:11 PM 30.0356 -95.9725 285° West 369 425 19,300 2,565 Climbing Houston Center
Wed 07:14:13 PM 30.0631 -96.0858 286° West 364 419 21,600 2,016 Climbing Houston Center
Wed 07:15:16 PM 30.0900 -96.1994 285° West 369 425 23,500 1,872 Climbing Houston Center
Wed 07:16:18 PM 30.1158 -96.3431 282° West 382 440 25,500 1,548 Climbing Houston Center
Wed 07:17:20 PM 30.1353 -96.4761 280° West 403 464 26,700 1,403 Climbing Houston Center
Wed 07:18:22 PM 30.1544 -96.6094 279° West 414 476 28,400 1,597 Climbing Houston Center
Wed 07:19:24 PM 30.1747 -96.7378 280° West 407 468 30,000 774 Climbing Houston Center
Wed 07:20:26 PM 30.1939 -96.8669 280° West 404 465 30,000 97 Level Houston Center
Wed 07:21:28 PM 30.2128 -96.9989 279° West 408 470 30,200 919 Climbing Houston Center
Wed 07:22:30 PM 30.2328 -97.1300 280° West 409 471 31,900 871 Climbing Houston Center
Wed 07:23:32 PM 30.2511 -97.2572 280° West 399 459 32,000 435 Climbing Houston Center
Wed 07:24:34 PM 30.2694 -97.3842 280° West 395 455 32,800 1,296 Climbing Houston Center
Wed 07:25:37 PM 30.2883 -97.5139 280° West 400 460 34,700 1,536 Climbing Houston Center
Wed 07:26:39 PM 30.3078 -97.6483 280° West 365 420 36,000 629 Climbing Houston Center
Wed 07:27:41 PM 30.3236 -97.7614 279° West 354 407 36,000  Level Houston Center
Wed 07:28:43 PM 30.3397 -97.8786 279° West 363 418 36,000  Level Houston Center
Wed 07:29:45 PM 30.3567 -97.9950 280° West 364 419 36,000  Level Houston Center
Wed 07:30:47 PM 30.3733 -98.1114 279° West 363 418 36,000  Level Houston Center
Wed 07:31:49 PM 30.3906 -98.2303 280° West 368 423 36,000  Level Houston Center
Wed 07:32:51 PM 30.4056 -98.3467 279° West 363 418 36,000  Level Houston Center
Wed 07:33:53 PM 30.4239 -98.4817 279° West 361 415 36,000  Level Houston Center
Wed 07:34:55 PM 30.4378 -98.5961 278° West 356 410 36,000  Level Houston Center
Wed 07:35:57 PM 30.4533 -98.7111 279° West 359 413 36,000  Level Houston Center
Wed 07:36:59 PM 30.4681 -98.8239 279° West 355 409 36,000  Level Houston Center
Wed 07:38:01 PM 30.4839 -98.9406 279° West 360 414 36,000  Level Houston Center
Wed 07:39:04 PM 30.4989 -99.0561 279° West 360 414 36,000 -48 Level Houston Center
Wed 07:40:06 PM 30.5167 -99.1761 280° West 360 414 35,900  Descending Houston Center
Wed 07:41:08 PM 30.5314 -99.2906 279° West 360 414 36,000 48 Climbing Houston Center
Wed 07:42:10 PM 30.5467 -99.4047 279° West 359 413 36,000  Level Houston Center
Wed 07:43:12 PM 30.5614 -99.5181 279° West 358 412 36,000  Level Houston Center
Wed 07:44:13 PM 30.5900 -99.6511 284° West 357 411 36,000 -49 Level Houston Center
Wed 07:45:15 PM 30.6131 -99.7633 283° West 358 412 35,900  Descending Houston Center
Wed 07:46:17 PM 30.6347 -99.8739 283° West 354 407 36,000 48 Climbing Houston Center
Wed 07:47:19 PM 30.6583 -99.9839 284° West 354 407 36,000 -48 Level Houston Center
Wed 07:48:21 PM 30.6817 -100.0936 284° West 353 406 35,900  Descending Houston Center
Wed 07:49:23 PM 30.7086 -100.2244 284° West 350 403 36,000 48 Climbing Houston Center
Wed 07:50:25 PM 30.7308 -100.3342 283° West 346 398 36,000  Level Houston Center
Wed 07:51:27 PM 30.7547 -100.4456 284° West 359 413 36,000  Level Houston Center
Wed 07:52:29 PM 30.7764 -100.5517 283° West 349 402 36,000  Level Houston Center
Wed 07:53:31 PM 30.7997 -100.6619 284° West 354 407 36,000  Level Houston Center
Wed 07:54:33 PM 30.8222 -100.7731 283° West 355 409 36,000  Level Houston Center
Wed 07:55:35 PM 30.8492 -100.9039 284° West 354 407 36,000  Level Houston Center
Wed 07:56:37 PM 30.8708 -101.0131 283° West 351 404 36,000 -48 Level Houston Center
Wed 07:57:39 PM 30.8922 -101.1239 283° West 353 406 35,900  Descending Houston Center
Wed 07:58:41 PM 30.9175 -101.2303 286° West 346 398 36,000 49 Climbing Houston Center
Wed 07:59:42 PM 30.9394 -101.3469 282° West 353 406 36,000 -49 Level Houston Center
Wed 08:00:44 PM 30.9611 -101.4589 283° West 358 412 35,900 -54 Descending Houston Center
Wed 08:01:34 PM 30.9817 -101.5700 282° West 355 409 35,900 54 Level Albuquerque Center
Wed 08:02:36 PM 31.0044 -101.6814 283° West 355 409 36,000 48 Climbing Albuquerque Center
Wed 08:03:38 PM 31.0253 -101.7950 282° West 356 410 36,000  Level Albuquerque Center
Wed 08:04:39 PM 31.0467 -101.9053 283° West 353 406 36,000  Level Albuquerque Center
Wed 08:05:41 PM 31.0697 -102.0222 283° West 362 417 36,000  Level Albuquerque Center
Wed 08:06:43 PM 31.0906 -102.1331 282° West 354 407 36,000  Level Albuquerque Center
Wed 08:07:45 PM 31.1117 -102.2431 283° West 350 403 36,000  Level Albuquerque Center
Wed 08:08:49 PM 31.1317 -102.3544 282° West 350 403 36,000  Level Albuquerque Center
Wed 08:09:48 PM 31.1533 -102.4636 283° West 347 399 36,000  Level Albuquerque Center
Wed 08:10:50 PM 31.1739 -102.5772 282° West 344 396 36,000  Level Albuquerque Center
Wed 08:11:51 PM 31.1986 -102.7075 283° West 342 394 36,000  Level Albuquerque Center
Wed 08:12:53 PM 31.2186 -102.8167 282° West 343 395 36,000  Level Albuquerque Center
Wed 08:13:55 PM 31.2394 -102.9275 282° West 347 399 36,000  Level Albuquerque Center
Wed 08:14:56 PM 31.2594 -103.0372 282° West 347 399 36,000  Level Albuquerque Center
Wed 08:15:58 PM 31.2792 -103.1461 282° West 345 397 36,000  Level Albuquerque Center
Wed 08:17:00 PM 31.3003 -103.2561 283° West 346 398 36,000 -48 Level Albuquerque Center
Wed 08:18:02 PM 31.3211 -103.3653 283° West 344 396 35,900  Descending Albuquerque Center
Wed 08:19:03 PM 31.3447 -103.4989 282° West 350 403 36,000 49 Climbing Albuquerque Center
Wed 08:20:05 PM 31.3650 -103.6092 282° West 347 399 36,000  Level Albuquerque Center
Wed 08:21:07 PM 31.3850 -103.7192 282° West 346 398 36,000  Level Albuquerque Center
Wed 08:22:08 PM 31.4064 -103.8358 282° West 348 400 36,000 -49 Level Albuquerque Center
Wed 08:23:10 PM 31.4256 -103.9461 282° West 348 400 35,900  Descending Albuquerque Center
Wed 08:24:12 PM 31.4461 -104.0561 282° West 347 399 36,000 48 Climbing Albuquerque Center
Wed 08:25:14 PM 31.4650 -104.1681 281° West 351 404 36,000 -49 Level Albuquerque Center
Wed 08:26:15 PM 31.4850 -104.2803 282° West 352 405 35,900 -49 Descending Albuquerque Center
Wed 08:27:17 PM 31.5042 -104.3944 281° West 356 410 35,900 49 Level Albuquerque Center
Wed 08:28:18 PM 31.5283 -104.5289 282° West 354 407 36,000  Climbing Albuquerque Center
Wed 08:29:20 PM 31.5472 -104.6411 281° West 354 407 35,900 -48 Descending Albuquerque Center
Wed 08:30:22 PM 31.5672 -104.7550 282° West 357 411 35,900 49 Level Albuquerque Center
Wed 08:31:23 PM 31.5861 -104.8656 281° West 351 404 36,000 49 Climbing Albuquerque Center
Wed 08:32:25 PM 31.6042 -104.9761 281° West 348 400 36,000 -48 Level Albuquerque Center
Wed 08:33:27 PM 31.6225 -105.0869 281° West 348 400 35,900  Descending Albuquerque Center
Wed 08:34:28 PM 31.6411 -105.1981 281° West 349 402 36,000 49 Climbing Albuquerque Center
Wed 08:35:30 PM 31.6625 -105.3328 281° West 351 404 36,000 -48 Level Albuquerque Center
Wed 08:36:32 PM 31.6811 -105.4436 281° West 348 400 35,900 -48 Descending Albuquerque Center
Wed 08:37:34 PM 31.6997 -105.5564 281° West 353 406 35,900 49 Level Albuquerque Center
Wed 08:38:35 PM 31.7178 -105.6681 281° West 351 404 36,000 49 Climbing Albuquerque Center
Wed 08:39:37 PM 31.7364 -105.7803 281° West 351 404 36,000  Level Albuquerque Center
Wed 08:40:39 PM 31.7550 -105.8936 281° West 355 409 36,000 -49 Level Albuquerque Center
Wed 08:41:40 PM 31.7772 -106.0297 281° West 354 407 35,900  Descending Albuquerque Center
Wed 08:42:42 PM 31.7953 -106.1414 281° West 351 404 36,000  Climbing Albuquerque Center
Wed 08:43:44 PM 31.8150 -106.2547 282° West 353 406 35,900  Descending Albuquerque Center
Wed 08:44:45 PM 31.8367 -106.3711 282° West 363 418 36,000  Climbing Albuquerque Center
Wed 08:45:47 PM 31.8606 -106.4847 284° West 361 415 35,900  Descending Albuquerque Center
Wed 08:46:49 PM 31.8850 -106.6133 283° West 359 413 36,000 49 Climbing Albuquerque Center
Wed 08:47:50 PM 31.9075 -106.7244 283° West 351 404 36,000 -49 Level Albuquerque Center
Wed 08:48:52 PM 31.9308 -106.8364 284° West 351 404 35,900  Descending Albuquerque Center
Wed 08:49:54 PM 31.9531 -106.9469 283° West 348 400 36,000 48 Climbing Albuquerque Center
Wed 08:50:56 PM 31.9744 -107.0572 283° West 346 398 36,000  Level Albuquerque Center
Wed 08:51:57 PM 31.9972 -107.1683 284° West 347 399 36,000 -49 Level Albuquerque Center
Wed 08:52:59 PM 32.0186 -107.2803 283° West 348 400 35,900  Descending Albuquerque Center
Wed 08:54:01 PM 32.0406 -107.3917 283° West 348 400 36,000 49 Climbing Albuquerque Center
Wed 08:55:02 PM 32.0664 -107.5247 283° West 346 398 36,000 -49 Level Albuquerque Center
Wed 08:56:04 PM 32.0875 -107.6358 283° West 346 398 35,900 -49 Descending Albuquerque Center
Wed 08:57:05 PM 32.1097 -107.7481 283° West 349 402 35,900 49 Level Albuquerque Center
Wed 08:58:07 PM 32.1306 -107.8583 283° West 346 398 36,000 48 Climbing Albuquerque Center
Wed 08:59:09 PM 32.1511 -107.9683 282° West 344 396 36,000  Level Albuquerque Center
Wed 09:00:10 PM 32.1725 -108.0781 283° West 342 394 36,000  Level Albuquerque Center
Wed 09:01:12 PM 32.1939 -108.1894 283° West 346 398 36,000  Level Albuquerque Center
Wed 09:02:14 PM 32.2136 -108.3011 282° West 347 399 36,000  Level Albuquerque Center
Wed 09:03:15 PM 32.2400 -108.4367 283° West 352 405 36,000  Level Albuquerque Center
Wed 09:04:17 PM 32.2608 -108.5525 282° West 351 404 36,000  Level Albuquerque Center
Wed 09:05:18 PM 32.2814 -108.6633 282° West 349 402 36,000  Level Albuquerque Center
Wed 09:06:20 PM 32.3022 -108.7736 283° West 346 398 36,000  Level Albuquerque Center
Wed 09:07:21 PM 32.3231 -108.8850 283° West 347 399 36,000  Level Albuquerque Center
Wed 09:08:23 PM 32.3433 -108.9969 282° West 349 402 36,000  Level Albuquerque Center
Wed 09:09:24 PM 32.3639 -109.1111 282° West 352 405 36,000  Level Albuquerque Center
Wed 09:10:26 PM 32.3839 -109.2292 281° West 360 414 36,000  Level Albuquerque Center
Wed 09:11:27 PM 32.4106 -109.3681 283° West 362 417 36,000  Level Albuquerque Center
Wed 09:12:29 PM 32.4303 -109.4847 281° West 363 418 36,000  Level Albuquerque Center
Wed 09:13:30 PM 32.4508 -109.6014 282° West 363 418 36,000  Level Albuquerque Center
Wed 09:14:32 PM 32.4719 -109.7167 282° West 363 418 36,000  Level Albuquerque Center
Wed 09:15:33 PM 32.4936 -109.8317 283° West 360 414 36,000  Level Albuquerque Center
Wed 09:16:35 PM 32.5136 -109.9481 282° West 362 417 36,000  Level Albuquerque Center
Wed 09:17:36 PM 32.5333 -110.0644 281° West 363 418 36,000  Level Albuquerque Center
Wed 09:18:37 PM 32.5553 -110.1814 283° West 365 420 36,000  Level Albuquerque Center
Wed 09:19:39 PM 32.5783 -110.3228 281° West 366 421 36,000  Level Albuquerque Center
Wed 09:20:40 PM 32.5981 -110.4394 281° West 369 425 36,000  Level Albuquerque Center
Wed 09:21:42 PM 32.6197 -110.5578 282° West 368 423 36,000  Level Albuquerque Center
Wed 09:22:43 PM 32.6406 -110.6778 282° West 369 425 36,000  Level Albuquerque Center
Wed 09:23:44 PM 32.6597 -110.8019 280° West 376 433 36,000  Level Albuquerque Center
Wed 09:24:46 PM 32.6794 -110.9242 281° West 377 434 36,000  Level Albuquerque Center
Wed 09:25:47 PM 32.7000 -111.0475 281° West 380 437 36,000  Level Albuquerque Center
Wed 09:26:49 PM 32.7208 -111.1717 281° West 383 441 36,000  Level Albuquerque Center
Wed 09:27:50 PM 32.7444 -111.3186 281° West 379 436 36,000  Level Albuquerque Center
Wed 09:28:51 PM 32.7653 -111.4428 281° West 381 438 36,000  Level Albuquerque Center
Wed 09:29:53 PM 32.7853 -111.5681 281° West 384 442 36,000  Level Albuquerque Center
Wed 09:30:54 PM 32.8050 -111.6928 281° West 384 442 36,000  Level Albuquerque Center
Wed 09:31:56 PM 32.8250 -111.8158 281° West 382 440 36,000  Level Albuquerque Center
Wed 09:32:57 PM 32.8442 -111.9414 280° West 383 441 36,000  Level Albuquerque Center
Wed 09:33:59 PM 32.8639 -112.0664 281° West 384 442 36,000  Level Albuquerque Center
Wed 09:35:00 PM 32.8833 -112.1897 281° West 381 438 36,000  Level Albuquerque Center
Wed 09:36:02 PM 32.9036 -112.3244 280° West 383 441 36,000  Level Albuquerque Center
Wed 09:37:03 PM 32.9225 -112.4511 280° West 388 447 36,000  Level Albuquerque Center
Wed 09:38:04 PM 32.9422 -112.5778 281° West 390 449 36,000 -49 Level Albuquerque Center
Wed 09:39:06 PM 32.9486 -112.7333 273° West 398 458 35,900  Descending Albuquerque Center
Wed 09:40:07 PM 32.9311 -112.8611 261° West 394 453 36,000 -98 Climbing Albuquerque Center
Wed 09:41:09 PM 32.9136 -112.9897 261° West 396 456 35,700 -585 Descending Albuquerque Center
Wed 09:42:10 PM 32.8964 -113.1189 261° West 398 458 34,800 -829 Descending Albuquerque Center
Wed 09:43:12 PM 32.8786 -113.2453 261° West 393 452 34,000 -390 Descending Albuquerque Center
Wed 09:44:13 PM 32.8606 -113.3731 260° West 393 452 34,000  Level Albuquerque Center
Wed 09:45:15 PM 32.8425 -113.5036 261° West 398 458 34,000  Level Albuquerque Center
Wed 09:46:16 PM 32.8203 -113.6611 261° West 402 463 34,000 -49 Level Albuquerque Center
Wed 09:47:18 PM 32.8014 -113.7925 260° West 404 465 33,900  Descending Albuquerque Center
Wed 09:48:19 PM 32.7825 -113.9239 260° West 405 466 34,000 49 Climbing Albuquerque Center
Wed 09:49:21 PM 32.7739 -114.0583 266° West 411 473 34,000 -341 Level Albuquerque Center
Wed 09:50:22 PM 32.7744 -114.1947 270° West 416 479 33,300 -791 Descending Albuquerque Center
Wed 09:51:30 PM 32.7725 -114.3469 269° West 419 482 32,300 -803 Descending Los Angeles Center
Wed 09:52:44 PM 32.7694 -114.4844 269° West 417 480 31,400 -851 Descending Los Angeles Center
Wed 09:53:58 PM 32.7681 -114.6772 270° West 416 479 30,200 -1,059 Descending Los Angeles Center
Wed 09:55:00 PM 32.7650 -114.8392 269° West 409 471 29,000 -976 Descending Los Angeles Center
Wed 09:56:01 PM 32.7617 -114.9469 268° West 408 470 28,200 -885 Descending Los Angeles Center
Wed 09:57:02 PM 32.7597 -115.0781 269° West 399 459 27,200 -1,073 Descending Los Angeles Center
Wed 09:58:04 PM 32.7561 -115.2325 268° West 390 449 26,000 -1,065 Descending Los Angeles Center
Wed 09:59:06 PM 32.7528 -115.3578 268° West 383 441 25,000 -878 Descending Los Angeles Center
Wed 10:00:07 PM 32.7489 -115.4575 267° West 379 436 24,200 -1,073 Descending Los Angeles Center
Wed 10:01:09 PM 32.7514 -115.6300 271° West 374 430 22,800 -1,161 Descending Los Angeles Center
Wed 10:02:11 PM 32.7553 -115.7617 272° West 397 457 21,800 -1,452 Descending Los Angeles Center
Wed 10:03:13 PM 32.7575 -115.8906 271° West 391 450 19,800 -2,177 Descending Los Angeles Center
Wed 10:04:15 PM 32.7614 -116.0175 272° West 385 443 17,300 -2,293 Descending Los Angeles Center
Wed 10:05:16 PM 32.7639 -116.1411 271° West 376 433 15,100 -2,146 Descending Los Angeles Center
Wed 10:06:18 PM 32.7667 -116.2600 272° West 360 414 12,900 -1,984 Descending Los Angeles Center
Wed 10:07:20 PM 32.7547 -116.3775 263° West 356 410 11,000 -1,512 Descending Los Angeles Center
Wed 10:08:21 PM 32.7356 -116.4850 258° West 332 382 9,800 -878 Descending Los Angeles Center
Wed 10:09:23 PM 32.7236 -116.5808 262° West 302 348 9,200 -800 Descending Los Angeles Center
Wed 10:10:36 PM 32.7119 -116.6717 261° West 282 325 8,000 -1,289 Descending Los Angeles Center
Wed 10:11:38 PM 32.7089 -116.7975 268° West 274 315 6,300 -1,210 Descending Los Angeles Center
Wed 10:12:40 PM 32.6900 -116.8767 254° West 260 299 5,500 -966 Descending Los Angeles Center
Wed 10:13:05 PM 32.6833 -116.9167 259° West 240 276 4,900 -1,482 Descending Southern California TRACON
Wed 10:14:05 PM 32.6833 -116.9833 270° West 233 268 3,400 -1,500 Descending Southern California TRACON

Login

Don't have an account? Register now (free) for customized features, flight alerts, and more!